createdAt,value
2023-03-19T00:01:03.124Z,4.42
2023-03-19T00:04:09.808Z,3.80
2023-03-19T00:07:15.183Z,4.37
2023-03-19T00:10:21.751Z,4.85
2023-03-19T00:13:27.204Z,4.05
2023-03-19T00:16:32.369Z,3.90
2023-03-19T00:19:38.288Z,4.30
2023-03-19T00:22:44.917Z,4.37
2023-03-19T00:25:51.274Z,3.92
2023-03-19T00:28:56.863Z,4.55
2023-03-19T00:32:01.859Z,4.37
2023-03-19T00:35:08.152Z,4.28
2023-03-19T00:38:12.962Z,4.35
2023-03-19T00:41:19.981Z,4.42
2023-03-19T00:44:25.484Z,3.85
2023-03-19T00:47:30.733Z,4.10
2023-03-19T00:50:36.573Z,4.22
2023-03-19T00:53:43.437Z,3.70
2023-03-19T00:56:49.800Z,4.50
2023-03-19T00:59:56.539Z,3.58
2023-03-19T01:03:03.061Z,3.42
2023-03-19T01:06:09.241Z,4.05
2023-03-19T01:09:15.888Z,3.98
2023-03-19T01:12:22.979Z,3.87
2023-03-19T01:15:28.917Z,3.45
2023-03-19T01:18:34.541Z,3.52
2023-03-19T01:21:39.875Z,4.42
2023-03-19T01:24:47.626Z,3.83
2023-03-19T01:27:53.736Z,3.90
2023-03-19T01:30:59.433Z,3.98
2023-03-19T01:34:16.015Z,3.37
2023-03-19T01:37:23.685Z,3.67
2023-03-19T01:40:29.467Z,3.87
2023-03-19T01:43:33.808Z,4.03
2023-03-19T01:46:47.196Z,4.70
2023-03-19T01:50:06.352Z,4.67
2023-03-19T01:53:12.850Z,4.37
2023-03-19T01:56:40.536Z,4.45
2023-03-19T01:59:56.279Z,3.80
2023-03-19T02:03:16.167Z,4.03
2023-03-19T02:06:24.719Z,3.50
2023-03-19T02:09:30.587Z,4.35
2023-03-19T02:12:36.538Z,4.33
2023-03-19T02:15:43.451Z,4.58
2023-03-19T02:18:48.962Z,4.53
2023-03-19T02:21:55.743Z,3.95
2023-03-19T02:25:10.123Z,4.20
2023-03-19T02:28:17.927Z,4.28
2023-03-19T02:31:24.761Z,3.90
2023-03-19T02:34:41.280Z,4.08
2023-03-19T02:37:47.540Z,3.70
2023-03-19T02:41:05.632Z,4.33
2023-03-19T02:44:11.390Z,4.08
2023-03-19T02:47:09.906Z,4.00
2023-03-19T02:50:03.273Z,4.80
2023-03-19T02:53:01.976Z,4.42
2023-03-19T02:56:07.362Z,3.65
2023-03-19T02:59:12.699Z,5.00
2023-03-19T03:02:18.727Z,4.05
2023-03-19T03:05:24.135Z,4.58
2023-03-19T03:08:30.116Z,4.35
2023-03-19T03:11:35.545Z,4.72
2023-03-19T03:14:41.679Z,4.50
2023-03-19T03:17:46.699Z,4.65
2023-03-19T03:20:52.528Z,4.28
2023-03-19T03:23:58.781Z,4.15
2023-03-19T03:27:04.956Z,4.60
2023-03-19T03:30:10.375Z,4.10
2023-03-19T03:33:16.796Z,4.00
2023-03-19T03:36:22.023Z,4.10
2023-03-19T03:39:27.005Z,4.65
2023-03-19T03:42:33.076Z,5.00
2023-03-19T03:45:38.973Z,5.00
2023-03-19T03:48:44.370Z,4.87
2023-03-19T03:51:50.887Z,4.75
2023-03-19T03:54:56.422Z,4.83
2023-03-19T03:58:02.433Z,4.92
2023-03-19T04:01:08.051Z,4.62
2023-03-19T04:04:14.610Z,4.92
2023-03-19T04:07:19.363Z,4.72
2023-03-19T04:10:27.553Z,4.78
2023-03-19T04:13:32.906Z,4.12
2023-03-19T04:16:38.255Z,5.25
2023-03-19T04:19:43.335Z,4.67
2023-03-19T04:22:49.222Z,4.33
2023-03-19T04:25:55.058Z,4.92
2023-03-19T04:29:00.478Z,4.22
2023-03-19T04:31:59.425Z,3.98
2023-03-19T04:34:53.754Z,5.50
2023-03-19T04:37:59.165Z,4.97
2023-03-19T04:41:04.818Z,4.53
2023-03-19T04:44:12.070Z,5.30
2023-03-19T04:47:20.456Z,4.42
2023-03-19T04:50:27.426Z,7.35
2023-03-19T04:53:34.174Z,5.60
2023-03-19T04:56:40.072Z,5.30
2023-03-19T04:59:46.642Z,4.80
2023-03-19T05:02:55.092Z,5.83
2023-03-19T05:06:01.929Z,6.12
2023-03-19T05:09:07.942Z,5.37
2023-03-19T05:12:13.906Z,6.22
2023-03-19T05:15:22.744Z,5.22
2023-03-19T05:18:33.924Z,4.65
2023-03-19T05:21:41.093Z,4.62
2023-03-19T05:24:48.860Z,4.78
2023-03-19T05:27:55.506Z,4.67
2023-03-19T05:31:01.950Z,6.25
2023-03-19T05:34:16.099Z,4.72
2023-03-19T05:37:22.355Z,5.35
2023-03-19T05:40:27.740Z,6.08
2023-03-19T05:43:36.712Z,5.08
2023-03-19T05:46:44.188Z,5.03
2023-03-19T05:49:51.098Z,4.62
2023-03-19T05:52:56.137Z,5.03
2023-03-19T05:56:01.604Z,4.28
2023-03-19T05:59:09.265Z,4.30
2023-03-19T06:02:17.156Z,5.30
2023-03-19T06:05:25.784Z,4.72
2023-03-19T06:08:33.628Z,5.25
2023-03-19T06:11:42.194Z,4.92
2023-03-19T06:15:03.078Z,4.45
2023-03-19T06:18:12.563Z,4.00
2023-03-19T06:21:19.526Z,4.90
2023-03-19T06:24:25.088Z,4.47
2023-03-19T06:27:32.045Z,4.97
2023-03-19T06:30:57.737Z,5.97
2023-03-19T06:34:13.223Z,6.05
2023-03-19T06:37:18.603Z,4.85
2023-03-19T06:40:24.544Z,5.10
2023-03-19T06:43:30.231Z,4.85
2023-03-19T06:46:35.991Z,4.42
2023-03-19T06:49:41.645Z,4.92
2023-03-19T06:52:49.484Z,5.40
2023-03-19T06:55:55.671Z,7.03
2023-03-19T06:59:02.418Z,5.30
2023-03-19T07:02:10.486Z,5.08
2023-03-19T07:05:15.489Z,5.33
2023-03-19T07:08:22.479Z,5.12
2023-03-19T07:11:28.002Z,4.58
2023-03-19T07:14:34.708Z,5.70
2023-03-19T07:17:41.037Z,4.47
2023-03-19T07:20:41.669Z,4.53
2023-03-19T07:23:48.506Z,5.22
2023-03-19T07:26:54.360Z,4.67
2023-03-19T07:30:02.269Z,4.92
2023-03-19T07:33:09.472Z,5.45
2023-03-19T07:36:15.070Z,4.80
2023-03-19T07:39:19.725Z,4.58
2023-03-19T07:42:25.317Z,5.37
2023-03-19T07:45:31.486Z,4.65
2023-03-19T07:48:38.086Z,5.03
2023-03-19T07:51:38.135Z,3.83
2023-03-19T07:54:44.637Z,4.45
2023-03-19T07:57:49.328Z,4.62
2023-03-19T08:00:54.907Z,5.33
2023-03-19T08:04:00.699Z,7.10
2023-03-19T08:07:07.136Z,4.65
2023-03-19T08:10:13.008Z,5.42
2023-03-19T08:13:20.998Z,4.97
2023-03-19T08:16:27.137Z,5.08
2023-03-19T08:19:32.497Z,5.03
2023-03-19T08:22:39.358Z,4.35
2023-03-19T08:25:46.684Z,4.85
2023-03-19T08:28:53.767Z,5.30
2023-03-19T08:32:00.356Z,4.37
2023-03-19T08:35:06.745Z,6.55
2023-03-19T08:38:11.361Z,5.15
2023-03-19T08:41:15.872Z,5.85
2023-03-19T08:44:22.152Z,4.78
2023-03-19T08:47:29.272Z,7.25
2023-03-19T08:50:36.149Z,5.35
2023-03-19T08:53:42.770Z,7.47
2023-03-19T08:56:49.402Z,5.17
2023-03-19T08:59:54.892Z,5.40
2023-03-19T09:03:01.350Z,6.37
2023-03-19T09:06:08.288Z,5.70
2023-03-19T09:09:14.859Z,5.80
2023-03-19T09:12:22.674Z,5.33
2023-03-19T09:15:29.578Z,5.70
2023-03-19T09:18:36.474Z,6.33
2023-03-19T09:21:43.149Z,6.53
2023-03-19T09:24:49.287Z,5.30
2023-03-19T09:27:55.684Z,4.83
2023-03-19T09:30:56.195Z,5.92
2023-03-19T09:34:02.602Z,5.15
2023-03-19T09:37:07.269Z,5.03
2023-03-19T09:40:13.897Z,4.70
2023-03-19T09:44:09.121Z,6.25
2023-03-19T09:47:26.276Z,7.72
2023-03-19T09:50:36.909Z,6.62
2023-03-19T09:53:57.251Z,5.08
2023-03-19T09:57:02.064Z,7.07
2023-03-19T10:00:08.329Z,5.30
2023-03-19T10:03:39.940Z,6.25
2023-03-19T10:06:52.958Z,5.28
2023-03-19T10:10:19.116Z,5.28
2023-03-19T10:13:47.548Z,5.17
2023-03-19T10:16:55.163Z,6.58
2023-03-19T10:20:16.789Z,4.87
2023-03-19T10:23:42.237Z,7.83
2023-03-19T10:26:49.830Z,6.15
2023-03-19T10:29:55.416Z,5.90
2023-03-19T10:33:05.450Z,8.20
2023-03-19T10:36:15.662Z,7.35
2023-03-19T10:39:21.975Z,6.25
2023-03-19T10:43:06.710Z,5.87
2023-03-19T10:46:13.088Z,5.92
2023-03-19T10:49:17.816Z,7.20
2023-03-19T10:52:45.018Z,7.22
2023-03-19T10:55:50.583Z,6.22
2023-03-19T10:58:56.788Z,7.90
2023-03-19T11:02:02.568Z,6.58
2023-03-19T11:05:41.387Z,6.28
2023-03-19T11:08:52.478Z,7.58
2023-03-19T11:12:01.317Z,6.95
2023-03-19T11:15:09.978Z,6.37
2023-03-19T11:18:22.935Z,7.20
2023-03-19T11:21:40.117Z,6.97
2023-03-19T11:24:51.374Z,5.62
2023-03-19T11:27:56.809Z,4.72
2023-03-19T11:31:40.678Z,6.15
2023-03-19T11:35:10.216Z,6.20
2023-03-19T11:38:17.864Z,6.20
2023-03-19T11:41:25.013Z,5.95
2023-03-19T11:44:51.315Z,6.25
2023-03-19T11:48:08.502Z,5.45
2023-03-19T11:51:51.849Z,5.45
2023-03-19T11:55:39.181Z,6.37
2023-03-19T11:59:04.568Z,6.60
2023-03-19T12:02:54.215Z,5.78
2023-03-19T12:06:19.645Z,5.33
2023-03-19T12:10:19.341Z,7.37
2023-03-19T12:13:45.709Z,5.62
2023-03-19T12:17:11.159Z,6.75
2023-03-19T12:20:42.208Z,6.85
2023-03-19T12:24:30.654Z,5.85
2023-03-19T12:27:49.641Z,6.75
2023-03-19T12:31:03.531Z,5.05
2023-03-19T12:34:31.341Z,5.70
2023-03-19T12:37:43.137Z,6.03
2023-03-19T12:41:08.345Z,5.55
2023-03-19T12:44:30.744Z,5.87
2023-03-19T12:47:43.143Z,6.17
2023-03-19T12:50:50.177Z,6.05
2023-03-19T12:54:21.943Z,6.72
2023-03-19T12:57:40.986Z,5.90
2023-03-19T13:01:09.790Z,6.87
2023-03-19T13:04:20.483Z,6.05
2023-03-19T13:07:36.919Z,5.42
2023-03-19T13:10:42.639Z,6.35
2023-03-19T13:14:10.699Z,5.78
2023-03-19T13:17:50.034Z,6.15
2023-03-19T13:21:38.951Z,5.73
2023-03-19T13:24:53.664Z,6.03
2023-03-19T13:28:01.670Z,5.45
2023-03-19T13:31:40.441Z,6.67
2023-03-19T13:34:49.953Z,5.22
2023-03-19T13:37:59.113Z,6.72
2023-03-19T13:41:07.620Z,5.08
2023-03-19T13:44:13.448Z,6.45
2023-03-19T13:47:40.097Z,6.35
2023-03-19T13:50:45.419Z,6.00
2023-03-19T13:54:10.384Z,6.00
2023-03-19T13:57:21.740Z,6.42
2023-03-19T14:01:01.823Z,6.22
2023-03-19T14:04:11.818Z,7.40
2023-03-19T14:10:43.277Z,6.35
2023-03-19T14:13:54.048Z,7.45
2023-03-19T14:17:00.168Z,6.30
2023-03-19T14:20:08.932Z,6.28
2023-03-19T14:23:41.268Z,6.17
2023-03-19T14:26:43.662Z,5.67
2023-03-19T14:29:50.478Z,5.97
2023-03-19T14:32:57.759Z,8.20
2023-03-19T14:35:58.707Z,9.03
2023-03-19T14:39:07.347Z,7.10
2023-03-19T14:42:40.287Z,7.55
2023-03-19T14:46:05.003Z,7.45
2023-03-19T14:49:34.702Z,11.68
2023-03-19T14:52:54.710Z,11.65
2023-03-19T14:59:12.684Z,18.10
2023-03-19T15:02:20.927Z,20.48
2023-03-19T15:05:36.385Z,14.07
2023-03-19T15:08:43.646Z,11.00
2023-03-19T15:11:56.482Z,8.95
2023-03-19T15:15:39.561Z,13.78
2023-03-19T15:18:46.272Z,9.80
2023-03-19T15:21:52.876Z,19.12
2023-03-19T15:24:58.301Z,26.87
2023-03-19T15:28:23.339Z,12.73
2023-03-19T15:31:41.768Z,11.85
2023-03-19T15:34:39.036Z,9.08
2023-03-19T15:37:47.462Z,9.70
2023-03-19T15:40:52.511Z,10.08
2023-03-19T15:43:58.171Z,8.33
2023-03-19T15:47:03.947Z,10.85
2023-03-19T15:50:26.695Z,8.50
2023-03-19T15:53:37.139Z,9.58
2023-03-19T15:56:44.427Z,8.70
2023-03-19T15:59:49.359Z,7.58
2023-03-19T16:03:00.711Z,8.93
2023-03-19T16:06:21.176Z,6.80
2023-03-19T16:09:47.605Z,6.33
2023-03-19T16:12:50.043Z,8.75
2023-03-19T16:15:58.982Z,7.25
2023-03-19T16:19:11.837Z,13.20
2023-03-19T16:22:32.849Z,9.23
2023-03-19T16:28:45.338Z,8.80
2023-03-19T16:32:00.153Z,9.48
2023-03-19T16:35:09.729Z,8.68
2023-03-19T16:38:39.998Z,9.53
2023-03-19T16:41:46.170Z,9.78
2023-03-19T16:44:57.549Z,8.40
2023-03-19T16:48:05.639Z,9.13
2023-03-19T16:51:11.470Z,9.25
2023-03-19T16:54:17.582Z,8.98
2023-03-19T16:57:20.068Z,8.95
2023-03-19T17:00:31.758Z,8.98
2023-03-19T17:03:37.867Z,8.23
2023-03-19T17:06:43.742Z,10.05
2023-03-19T17:09:49.680Z,9.63
2023-03-19T17:12:55.372Z,12.05
2023-03-19T17:16:02.073Z,10.20
2023-03-19T17:19:08.424Z,8.85
2023-03-19T17:22:13.955Z,9.93
2023-03-19T17:25:27.409Z,9.55
2023-03-19T17:28:26.496Z,10.90
2023-03-19T17:31:38.640Z,10.40
2023-03-19T17:34:45.208Z,10.28
2023-03-19T17:37:50.688Z,9.28
2023-03-19T17:40:49.746Z,10.23
2023-03-19T17:43:58.879Z,9.55
2023-03-19T17:47:07.530Z,9.38
2023-03-19T17:50:15.093Z,10.53
2023-03-19T17:53:24.950Z,10.98
2023-03-19T17:56:33.089Z,9.90
2023-03-19T17:59:38.016Z,9.70
2023-03-19T18:02:47.529Z,9.83
2023-03-19T18:05:47.411Z,9.43
2023-03-19T18:08:53.473Z,8.53
2023-03-19T18:11:58.994Z,9.38
2023-03-19T18:15:04.820Z,9.48
2023-03-19T18:18:12.063Z,9.50
2023-03-19T18:21:18.554Z,10.40
2023-03-19T18:24:26.262Z,8.50
2023-03-19T18:27:32.232Z,9.45
2023-03-19T18:30:37.786Z,11.65
2023-03-19T18:33:43.858Z,8.63
2023-03-19T18:36:50.616Z,7.42
2023-03-19T18:39:56.840Z,8.38
2023-03-19T18:43:02.302Z,10.65
2023-03-19T18:46:08.548Z,8.60
2023-03-19T18:49:18.488Z,9.48
2023-03-19T18:52:28.684Z,7.40
2023-03-19T18:55:34.002Z,7.83
2023-03-19T18:58:41.540Z,9.63
2023-03-19T19:01:47.358Z,7.95
2023-03-19T19:04:54.129Z,9.63
2023-03-19T19:07:59.582Z,9.65
2023-03-19T19:11:07.034Z,7.92
2023-03-19T19:14:13.331Z,10.23
2023-03-19T19:17:19.610Z,8.35
2023-03-19T19:20:35.034Z,8.80
2023-03-19T19:23:41.120Z,7.28
2023-03-19T19:26:47.940Z,7.80
2023-03-19T19:29:53.936Z,8.88
2023-03-19T19:33:01.395Z,8.23
2023-03-19T19:36:07.971Z,7.85
2023-03-19T19:39:14.454Z,6.75
2023-03-19T19:42:20.465Z,9.23
2023-03-19T19:45:47.409Z,10.15
2023-03-19T19:48:53.669Z,8.25
2023-03-19T19:51:59.479Z,7.83
2023-03-19T19:55:04.687Z,8.60
2023-03-19T19:58:10.653Z,7.15
2023-03-19T20:01:16.854Z,6.45
2023-03-19T20:04:30.574Z,8.68
2023-03-19T20:07:35.504Z,8.55
2023-03-19T20:10:43.214Z,7.70
2023-03-19T20:13:51.160Z,8.45
2023-03-19T20:16:57.881Z,9.08
2023-03-19T20:20:03.330Z,8.45
2023-03-19T20:23:10.607Z,7.50
2023-03-19T20:26:16.812Z,7.83
2023-03-19T20:29:26.106Z,7.85
2023-03-19T20:32:45.567Z,7.97
2023-03-19T20:35:53.467Z,8.95
2023-03-19T20:38:59.466Z,9.90
2023-03-19T20:42:05.824Z,8.18
2023-03-19T20:45:14.724Z,8.85
2023-03-19T20:48:27.365Z,8.20
2023-03-19T20:51:39.857Z,6.97
2023-03-19T20:54:47.968Z,7.87
2023-03-19T20:57:54.388Z,8.05
2023-03-19T21:01:01.191Z,7.35
2023-03-19T21:04:10.336Z,7.75
2023-03-19T21:07:15.177Z,8.00
2023-03-19T21:10:30.757Z,7.15
2023-03-19T21:13:36.978Z,8.25
2023-03-19T21:16:43.675Z,8.35
2023-03-19T21:19:49.916Z,7.00
2023-03-19T21:22:56.101Z,6.75
2023-03-19T21:26:03.271Z,6.45
2023-03-19T21:29:16.475Z,6.92
2023-03-19T21:32:26.394Z,6.95
2023-03-19T21:35:35.413Z,7.22
2023-03-19T21:38:43.060Z,7.05
2023-03-19T21:41:49.275Z,6.85
2023-03-19T21:44:55.167Z,6.78
2023-03-19T21:48:01.689Z,8.28
2023-03-19T21:51:08.422Z,5.97
2023-03-19T21:54:13.831Z,7.03
2023-03-19T21:57:21.559Z,6.65
2023-03-19T22:00:29.538Z,6.35
2023-03-19T22:03:35.863Z,6.67
2023-03-19T22:06:40.677Z,6.53
2023-03-19T22:09:46.962Z,6.62
2023-03-19T22:12:53.070Z,7.03
2023-03-19T22:15:58.707Z,7.22
2023-03-19T22:19:05.672Z,7.17
2023-03-19T22:22:11.075Z,6.87
2023-03-19T22:25:17.528Z,6.47
2023-03-19T22:28:44.648Z,6.25
2023-03-19T22:31:50.195Z,6.58
2023-03-19T22:34:56.501Z,7.37
2023-03-19T22:38:02.431Z,7.22
2023-03-19T22:41:09.180Z,8.25
2023-03-19T22:44:14.286Z,6.95
2023-03-19T22:47:20.569Z,7.05
2023-03-19T22:50:37.076Z,6.70
2023-03-19T22:53:48.575Z,7.28
2023-03-19T22:56:54.811Z,6.95
2023-03-19T23:00:01.452Z,7.78
2023-03-19T23:03:04.335Z,6.92
2023-03-19T23:06:27.080Z,7.35
2023-03-19T23:09:31.187Z,7.53
2023-03-19T23:12:37.698Z,6.60
2023-03-19T23:15:43.131Z,7.42
2023-03-19T23:18:49.609Z,7.65
2023-03-19T23:21:58.970Z,7.40
2023-03-19T23:25:04.296Z,7.65
2023-03-19T23:28:14.010Z,6.78
2023-03-19T23:31:22.458Z,7.15
2023-03-19T23:34:29.851Z,7.45
2023-03-19T23:37:36.825Z,7.70
2023-03-19T23:40:45.791Z,8.18
2023-03-19T23:43:50.646Z,7.60
2023-03-19T23:46:59.000Z,7.10
2023-03-19T23:50:04.561Z,7.28
2023-03-19T23:53:10.515Z,7.50
2023-03-19T23:56:10.988Z,7.55
2023-03-19T23:59:17.441Z,7.87
